Time;durP1;ratioP1;P1;durP2;ratioP2;P2;SDS_P1;SDS_P2;PMS_P1;PMS_P2;Temp;Humidity;BMP_temperature;BMP_pressure;BME280_temperature;BME280_humidity;BME280_pressure;Samples;Min_cycle;Max_cycle;Signal;HPM_P1;HPM_P2
2023/01/29 00:01:07;;;;;;;89.57;36.90;;;;;;;-4.13;100.00;103086.66;5248699;28;20389;-74
2023/01/29 00:03:37;;;;;;;99.38;37.80;;;;;;;-4.19;100.00;103082.38;5259901;28;20080;-74
2023/01/29 00:06:08;;;;;;;111.78;38.65;;;;;;;-4.27;100.00;103077.19;5246975;28;20107;-73
2023/01/29 00:08:39;;;;;;;90.63;37.13;;;;;;;-4.32;100.00;103086.00;5246607;28;20032;-73
2023/01/29 00:11:09;;;;;;;104.50;39.38;;;;;;;-4.37;100.00;103082.53;5246802;28;20012;-73
2023/01/29 00:13:40;;;;;;;100.55;36.17;;;;;;;-4.43;100.00;103076.50;5246853;28;20031;-73
2023/01/29 00:16:10;;;;;;;88.70;35.22;;;;;;;-4.47;100.00;103081.78;5260100;28;20498;-74
2023/01/29 00:18:41;;;;;;;100.15;37.15;;;;;;;-4.49;100.00;103078.31;5262685;28;20055;-73
2023/01/29 00:21:14;;;;;;;85.50;36.97;;;;;;;-4.54;100.00;103075.72;5246515;28;20081;-74
2023/01/29 00:23:45;;;;;;;99.38;36.72;;;;;;;-4.56;100.00;103069.66;5246643;28;20025;-73
2023/01/29 00:26:16;;;;;;;111.22;37.17;;;;;;;-4.58;100.00;103065.28;5245430;28;20021;-74
2023/01/29 00:28:47;;;;;;;93.05;37.67;;;;;;;-4.59;100.00;103064.44;5246181;28;20684;-74
2023/01/29 00:31:20;;;;;;;91.82;40.40;;;;;;;-4.61;100.00;103063.59;5246282;28;20055;-73
2023/01/29 00:33:51;;;;;;;107.68;42.53;;;;;;;-4.61;100.00;103060.09;5246642;28;20046;-73
2023/01/29 00:36:23;;;;;;;101.03;37.35;;;;;;;-4.63;100.00;103062.72;5246079;28;20275;-73
2023/01/29 00:38:58;;;;;;;103.35;38.50;;;;;;;-4.61;100.00;103065.34;5246407;28;20028;-74
2023/01/29 00:50:00;;;;;;;104.65;39.47;;;;;;;-4.60;100.00;103044.38;5246164;28;20104;-73
2023/01/29 00:52:31;;;;;;;105.55;40.25;;;;;;;-4.60;100.00;103053.97;5245774;28;20021;-73
2023/01/29 00:55:04;;;;;;;104.97;40.63;;;;;;;-4.61;100.00;103045.25;5245384;28;20043;-73
2023/01/29 00:57:36;;;;;;;111.80;41.95;;;;;;;-4.63;100.00;103044.38;5245104;28;20039;-73
2023/01/29 01:00:09;;;;;;;107.07;41.70;;;;;;;-4.66;100.00;103043.56;5258678;28;20020;-73
2023/01/29 01:05:29;;;;;;;109.47;38.90;;;;;;;-4.70;100.00;103030.50;5250491;28;20021;-73
2023/01/29 01:08:00;;;;;;;102.35;40.40;;;;;;;-4.73;100.00;103027.88;5244091;28;20032;-74
2023/01/29 01:10:32;;;;;;;97.95;38.72;;;;;;;-4.73;100.00;103024.41;5245047;28;20012;-73
2023/01/29 01:13:05;;;;;;;104.65;39.65;;;;;;;-4.76;100.00;103029.69;5245892;28;20409;-74
2023/01/29 01:15:38;;;;;;;101.68;39.55;;;;;;;-4.78;100.00;103024.44;5254423;28;20035;-74
2023/01/29 01:18:08;;;;;;;108.07;39.92;;;;;;;-4.77;100.00;103020.97;5252513;28;20039;-73
2023/01/29 01:20:39;;;;;;;97.25;39.47;;;;;;;-4.77;100.00;103012.22;5245046;28;20029;-73
2023/01/29 01:23:09;;;;;;;102.93;37.10;;;;;;;-4.83;100.00;103012.28;5245383;28;20066;-73
2023/01/29 01:25:40;;;;;;;98.55;37.65;;;;;;;-4.93;100.00;103003.66;5245946;28;20035;-74
2023/01/29 01:28:10;;;;;;;101.53;38.92;;;;;;;-4.96;100.00;103007.19;5243701;28;20028;-73
2023/01/29 01:30:41;;;;;;;95.93;39.38;;;;;;;-4.83;100.00;103009.66;5245369;28;20029;-74
2023/01/29 01:33:11;;;;;;;105.43;39.30;;;;;;;-4.76;100.00;103011.38;5244743;28;20059;-73
2023/01/29 01:35:42;;;;;;;99.45;38.65;;;;;;;-4.76;100.00;103022.69;5245508;28;20031;-73
2023/01/29 01:38:12;;;;;;;104.68;39.08;;;;;;;-4.77;100.00;103015.72;5244516;28;20111;-74
2023/01/29 01:40:45;;;;;;;105.22;40.35;;;;;;;-4.77;100.00;103017.47;5245439;28;20029;-74
2023/01/29 01:43:15;;;;;;;100.00;39.17;;;;;;;-4.76;100.00;103019.22;5244162;28;20024;-73
2023/01/29 01:45:46;;;;;;;107.13;39.13;;;;;;;-4.76;100.00;103017.47;5245143;28;20056;-74
2023/01/29 01:48:21;;;;;;;100.53;37.78;;;;;;;-4.75;100.00;103023.56;5245505;28;20076;-74
2023/01/29 01:51:00;;;;;;;106.38;37.40;;;;;;;-4.76;100.00;103024.47;5243936;28;20032;-73
2023/01/29 01:53:37;;;;;;;94.20;36.33;;;;;;;-4.63;100.00;103026.06;5256335;28;20063;-73
2023/01/29 01:56:18;;;;;;;91.78;36.05;;;;;;;-4.52;100.00;103031.16;5245389;28;20051;-74
2023/01/29 01:58:55;;;;;;;102.72;37.00;;;;;;;-4.46;100.00;103034.63;5257110;28;20020;-74
2023/01/29 02:01:29;;;;;;;94.18;37.83;;;;;;;-4.45;100.00;103036.34;5245036;28;20056;-74
2023/01/29 02:10:11;;;;;;;94.75;35.08;;;;;;;-4.58;100.00;103033.88;5245186;28;20017;-74
2023/01/29 02:12:43;;;;;;;88.97;34.42;;;;;;;-4.68;100.00;103041.81;5244809;28;20028;-74
2023/01/29 02:15:13;;;;;;;85.38;32.75;;;;;;;-4.79;100.00;103033.19;5250665;28;20020;-73
2023/01/29 02:17:47;;;;;;;85.20;34.33;;;;;;;-4.86;100.00;103039.38;5255379;28;20500;-74
2023/01/29 02:20:23;;;;;;;88.15;35.25;;;;;;;-4.91;100.00;103038.56;5244742;28;20028;-74
2023/01/29 02:22:54;;;;;;;83.65;34.03;;;;;;;-4.93;100.00;103036.81;5243777;28;20545;-74
2023/01/29 02:25:47;;;;;;;87.05;34.80;;;;;;;-4.95;100.00;103036.84;5244588;28;20115;-74
2023/01/29 02:28:30;;;;;;;93.03;36.40;;;;;;;-4.96;100.00;103054.31;5247466;28;20048;-74
2023/01/29 02:31:04;;;;;;;87.68;36.53;;;;;;;-4.96;100.00;103056.06;5264679;28;20125;-74
2023/01/29 02:34:04;;;;;;;98.93;36.38;;;;;;;-4.97;100.00;103049.06;5244799;28;20107;-74
2023/01/29 02:36:50;;;;;;;92.53;35.40;;;;;;;-4.97;100.00;103057.81;5244422;28;20584;-73
2023/01/29 02:39:32;;;;;;;90.80;36.38;;;;;;;-4.98;100.00;103058.66;5244892;28;20051;-74
2023/01/29 02:42:34;;;;;;;94.90;36.33;;;;;;;-4.99;100.00;103054.31;5243152;28;20685;-73
2023/01/29 02:45:58;;;;;;;97.00;36.47;;;;;;;-5.01;100.00;103053.47;5245739;28;20507;-74
2023/01/29 02:48:41;;;;;;;94.05;36.72;;;;;;;-5.05;100.00;103056.13;5180439;28;20025;-74
2023/01/29 02:51:19;;;;;;;98.85;36.75;;;;;;;-5.08;100.00;103051.78;5262901;28;20020;-74
2023/01/29 02:54:05;;;;;;;93.30;35.72;;;;;;;-5.11;100.00;103043.97;5249191;28;20021;-73
2023/01/29 02:56:46;;;;;;;89.50;36.40;;;;;;;-5.11;100.00;103046.56;5257720;28;20089;-74
2023/01/29 02:59:25;;;;;;;99.93;37.33;;;;;;;-5.11;100.00;103057.06;5253442;28;20027;-75
2023/01/29 03:02:09;;;;;;;93.93;36.63;;;;;;;-5.07;100.00;103047.41;5255892;28;20024;-74
2023/01/29 03:04:45;;;;;;;98.18;36.78;;;;;;;-5.04;100.00;103044.78;5264480;28;20434;-74
2023/01/29 03:07:45;;;;;;;100.72;37.38;;;;;;;-5.05;100.00;103037.81;5255286;28;20025;-74
2023/01/29 03:10:35;;;;;;;89.25;33.75;;;;;;;-5.06;100.00;103039.56;5250796;28;20166;-74
2023/01/29 03:13:24;;;;;;;90.18;36.13;;;;;;;-5.05;100.00;103037.81;5249246;28;20397;-74
2023/01/29 03:16:05;;;;;;;90.90;35.92;;;;;;;-5.01;100.00;103036.91;5261859;28;20028;-74
2023/01/29 03:18:44;;;;;;;89.50;35.63;;;;;;;-4.99;100.00;103041.22;5253064;28;20547;-74
2023/01/29 03:21:50;;;;;;;99.00;38.08;;;;;;;-4.94;100.00;103046.44;5249154;28;20028;-74
2023/01/29 03:33:41;;;;;;;109.60;37.97;;;;;;;-4.70;100.00;103054.06;5261914;28;20056;-74
2023/01/29 03:36:20;;;;;;;98.70;37.75;;;;;;;-4.64;100.00;103052.28;5247914;28;20024;-74
2023/01/29 03:38:50;;;;;;;91.28;36.17;;;;;;;-4.60;100.00;103046.13;5248219;28;20035;-74
2023/01/29 03:41:32;;;;;;;99.75;38.05;;;;;;;-4.57;100.00;103043.44;5247786;28;20439;-74
2023/01/29 03:44:02;;;;;;;94.95;38.40;;;;;;;-4.54;100.00;103043.44;5247632;28;20381;-74
2023/01/29 03:46:39;;;;;;;106.40;39.85;;;;;;;-4.48;100.00;103041.59;5246753;28;20103;-74
2023/01/29 03:49:46;;;;;;;108.13;41.17;;;;;;;-4.37;100.00;103041.47;5246294;28;20062;-74
2023/01/29 03:52:45;;;;;;;98.82;39.05;;;;;;;-4.28;100.00;103038.75;5247526;28;20222;-74
2023/01/29 03:55:42;;;;;;;97.68;38.38;;;;;;;-4.25;100.00;103030.88;5248249;28;20017;-74
2023/01/29 03:58:36;;;;;;;94.85;36.20;;;;;;;-4.20;100.00;103025.59;5237758;28;20047;-74
2023/01/29 04:01:17;;;;;;;93.30;36.83;;;;;;;-4.17;100.00;103020.28;5247310;28;20560;-74
2023/01/29 04:03:53;;;;;;;87.53;35.63;;;;;;;-4.20;100.00;103018.59;5261647;28;20089;-74
2023/01/29 04:06:28;;;;;;;95.00;36.67;;;;;;;-4.20;100.00;103028.22;5247655;28;20035;-74
2023/01/29 04:09:09;;;;;;;97.07;36.80;;;;;;;-4.20;100.00;103029.06;5247894;28;20025;-74
2023/01/29 04:11:46;;;;;;;97.25;37.08;;;;;;;-4.15;100.00;103017.66;5247278;28;20086;-74
2023/01/29 04:14:17;;;;;;;96.63;37.60;;;;;;;-4.13;100.00;103014.13;5246815;28;20020;-74
2023/01/29 04:16:54;;;;;;;87.75;34.35;;;;;;;-4.07;100.00;103024.53;5264042;28;20051;-74
2023/01/29 04:19:25;;;;;;;97.72;36.88;;;;;;;-4.00;100.00;103033.22;5247755;28;20477;-75
2023/01/29 04:22:35;;;;;;;93.05;36.83;;;;;;;-3.95;100.00;103016.53;5247129;28;20093;-74
2023/01/29 04:25:17;;;;;;;99.55;36.92;;;;;;;-3.91;100.00;102997.25;5196508;28;20058;-74
2023/01/29 04:28:07;;;;;;;94.90;36.67;;;;;;;-3.84;100.00;102991.91;5243017;28;20040;-74
2023/01/29 04:30:46;;;;;;;93.78;35.20;;;;;;;-3.77;100.00;102997.03;5246384;28;20055;-75
2023/01/29 04:33:47;;;;;;;89.53;35.58;;;;;;;-3.70;100.00;103000.44;5246097;28;20025;-74
2023/01/29 04:36:27;;;;;;;90.22;34.97;;;;;;;-3.66;100.00;102991.66;5247215;28;20036;-74
2023/01/29 04:39:11;;;;;;;85.10;35.17;;;;;;;-3.62;100.00;102985.44;5247556;28;20077;-74
2023/01/29 04:42:06;;;;;;;98.03;35.03;;;;;;;-3.57;100.00;102985.38;5246890;28;20507;-74
2023/01/29 04:44:49;;;;;;;101.82;36.88;;;;;;;-3.53;100.00;102989.69;5265124;28;20305;-74
2023/01/29 04:47:46;;;;;;;96.25;33.90;;;;;;;-3.44;100.00;102989.56;5253682;28;20024;-74
2023/01/29 04:50:27;;;;;;;94.40;33.50;;;;;;;-3.35;100.00;102986.78;5247295;28;20024;-74
2023/01/29 04:53:22;;;;;;;107.22;35.70;;;;;;;-3.22;100.00;102980.44;5246917;28;20047;-74
2023/01/29 04:56:09;;;;;;;106.45;34.05;;;;;;;-3.12;100.00;102978.50;5246923;28;20024;-74
2023/01/29 04:58:45;;;;;;;110.32;34.58;;;;;;;-3.02;100.00;102976.59;5258476;28;20063;-74
2023/01/29 05:01:18;;;;;;;125.93;44.70;;;;;;;-2.94;100.00;102974.72;5246773;28;20136;-75
2023/01/29 05:03:52;;;;;;;107.45;34.63;;;;;;;-2.90;100.00;102964.13;5259807;28;20023;-74
2023/01/29 05:06:24;;;;;;;113.35;36.97;;;;;;;-2.83;100.00;102959.63;5246466;28;20037;-74
2023/01/29 05:08:56;;;;;;;96.65;31.33;;;;;;;-2.79;100.00;102963.06;5245717;28;20019;-75
2023/01/29 05:11:29;;;;;;;94.95;34.30;;;;;;;-2.76;100.00;102968.22;5245077;28;20498;-74
2023/01/29 05:14:03;;;;;;;92.95;30.83;;;;;;;-2.72;100.00;102976.03;5245333;28;20052;-75
2023/01/29 05:16:41;;;;;;;97.97;34.78;;;;;;;-2.66;100.00;102959.28;5263021;28;20077;-75
2023/01/29 05:19:14;;;;;;;84.43;29.40;;;;;;;-2.63;100.00;102957.47;5246559;28;20028;-75
2023/01/29 05:21:47;;;;;;;92.90;30.73;;;;;;;-2.60;100.00;102959.19;5246520;28;20020;-75
2023/01/29 05:24:23;;;;;;;94.85;33.35;;;;;;;-2.59;100.00;102946.91;5246411;28;20447;-75
2023/01/29 05:29:45;;;;;;;88.15;31.05;;;;;;;-2.59;100.00;102937.25;5246487;28;20055;-75
2023/01/29 05:32:15;;;;;;;88.38;30.67;;;;;;;-2.57;100.00;102942.47;5246548;28;20035;-75
2023/01/29 05:34:46;;;;;;;92.63;32.95;;;;;;;-2.54;100.00;102947.69;5259958;28;20110;-75
2023/01/29 05:37:16;;;;;;;86.15;29.67;;;;;;;-2.51;100.00;102948.50;5245194;28;20021;-75
2023/01/29 05:39:47;;;;;;;101.90;33.35;;;;;;;-2.45;100.00;102943.09;5246243;28;20112;-75
2023/01/29 05:42:18;;;;;;;97.35;32.40;;;;;;;-2.40;100.00;102958.78;5247038;28;20055;-75
2023/01/29 05:44:48;;;;;;;87.35;30.17;;;;;;;-2.35;100.00;102957.78;5246160;28;20099;-75
2023/01/29 05:47:20;;;;;;;80.13;28.27;;;;;;;-2.32;100.00;102953.34;5244519;28;20432;-74
2023/01/29 05:49:51;;;;;;;94.10;33.22;;;;;;;-2.31;100.00;102957.72;5246559;28;20484;-75
2023/01/29 05:52:21;;;;;;;87.03;30.63;;;;;;;-2.30;100.00;102957.69;5246190;28;20035;-75
2023/01/29 05:54:51;;;;;;;94.65;31.13;;;;;;;-2.29;100.00;102958.56;5246543;28;20032;-75
2023/01/29 05:57:22;;;;;;;83.70;30.45;;;;;;;-2.28;100.00;102945.38;5245658;28;20493;-74
2023/01/29 05:59:52;;;;;;;90.47;28.90;;;;;;;-2.25;100.00;102947.09;5255754;28;20028;-75
2023/01/29 06:02:23;;;;;;;89.18;29.77;;;;;;;-2.21;100.00;102951.34;5254797;28;20021;-75
2023/01/29 06:04:53;;;;;;;80.85;26.92;;;;;;;-2.20;100.00;102947.84;5256442;28;20461;-75
2023/01/29 06:07:24;;;;;;;96.28;30.88;;;;;;;-2.16;100.00;102945.13;5249945;28;20035;-74
2023/01/29 06:09:54;;;;;;;79.82;29.02;;;;;;;-2.18;100.00;102949.53;5254603;28;20388;-75
2023/01/29 06:12:26;;;;;;;86.20;29.17;;;;;;;-2.16;100.00;102949.50;5245860;28;20020;-75
2023/01/29 06:14:56;;;;;;;89.97;29.67;;;;;;;-2.09;100.00;102951.09;5249627;28;20653;-74
2023/01/29 06:17:27;;;;;;;81.25;28.95;;;;;;;-2.10;100.00;102955.50;5259114;28;20032;-76
2023/01/29 06:19:57;;;;;;;74.88;27.15;;;;;;;-2.09;100.00;102962.50;5244625;28;20399;-75
2023/01/29 06:22:28;;;;;;;79.85;27.77;;;;;;;-2.05;100.00;102968.56;5245857;28;20020;-75
2023/01/29 06:24:58;;;;;;;76.75;27.70;;;;;;;-2.03;100.00;102961.50;5245539;28;20052;-75
2023/01/29 06:27:28;;;;;;;85.78;29.08;;;;;;;-2.00;100.00;102961.44;5245817;28;20027;-75
2023/01/29 06:29:59;;;;;;;84.85;29.58;;;;;;;-1.96;100.00;102959.59;5244706;28;20029;-75
2023/01/29 06:32:29;;;;;;;81.10;28.63;;;;;;;-1.95;100.00;102959.56;5248918;28;20046;-75
2023/01/29 06:35:00;;;;;;;80.07;28.38;;;;;;;-1.97;100.00;102963.13;5244328;28;20421;-76
2023/01/29 06:37:31;;;;;;;89.40;29.55;;;;;;;-2.00;100.00;102956.16;5243945;28;20029;-75
2023/01/29 06:40:02;;;;;;;81.45;29.58;;;;;;;-1.99;100.00;102957.03;5244297;28;20389;-75
2023/01/29 06:42:36;;;;;;;86.43;28.25;;;;;;;-1.99;100.00;102957.03;5242639;28;20039;-75
2023/01/29 06:45:07;;;;;;;94.68;29.95;;;;;;;-1.97;100.00;102955.22;5245057;28;20027;-75
2023/01/29 06:47:37;;;;;;;84.25;28.92;;;;;;;-1.94;100.00;102956.03;5244084;28;20060;-75
2023/01/29 06:50:08;;;;;;;84.32;28.95;;;;;;;-1.91;100.00;102953.34;5243100;28;20059;-75
2023/01/29 06:52:39;;;;;;;87.10;28.85;;;;;;;-1.89;100.00;102956.78;5244395;28;20032;-75
2023/01/29 06:55:09;;;;;;;90.03;30.60;;;;;;;-1.84;100.00;102960.19;5244706;28;20504;-76
2023/01/29 06:57:40;;;;;;;89.35;30.60;;;;;;;-1.83;100.00;102961.91;5249308;28;20098;-75
2023/01/29 07:00:11;;;;;;;87.00;31.45;;;;;;;-1.80;100.00;102962.75;5262746;28;20156;-75
2023/01/29 07:02:41;;;;;;;85.28;28.95;;;;;;;-1.75;100.00;102960.88;5249331;28;20023;-75
2023/01/29 07:05:12;;;;;;;88.75;30.95;;;;;;;-1.73;100.00;102964.34;5249192;28;20033;-75
2023/01/29 07:07:42;;;;;;;93.80;30.88;;;;;;;-1.73;100.00;102961.69;5243128;28;20029;-75
2023/01/29 07:10:13;;;;;;;105.63;32.72;;;;;;;-1.73;100.00;102941.50;5245628;28;20107;-75
2023/01/29 07:12:43;;;;;;;87.50;30.55;;;;;;;-1.71;100.00;102941.47;5266322;28;20064;-75
2023/01/29 07:15:18;;;;;;;92.00;32.20;;;;;;;-1.72;100.00;102939.75;5255273;28;20499;-75
2023/01/29 07:18:02;;;;;;;79.97;28.90;;;;;;;-1.70;100.00;102937.97;5266215;28;20020;-75
2023/01/29 07:20:33;;;;;;;87.00;30.90;;;;;;;-1.70;100.00;102928.28;5245857;28;20059;-75
2023/01/29 07:23:03;;;;;;;107.90;33.70;;;;;;;-1.72;100.00;102924.81;5244344;28;20051;-75
2023/01/29 07:25:35;;;;;;;94.50;34.20;;;;;;;-1.68;100.00;102923.84;5244884;28;20444;-75
2023/01/29 07:28:06;;;;;;;82.45;28.80;;;;;;;-1.66;100.00;102929.94;5243175;28;20099;-75
2023/01/29 07:30:37;;;;;;;97.93;33.50;;;;;;;-1.62;100.00;102930.72;5242954;28;20024;-76
2023/01/29 07:33:09;;;;;;;92.22;31.48;;;;;;;-1.59;100.00;102921.00;5240892;28;20031;-75
2023/01/29 07:35:42;;;;;;;89.57;29.52;;;;;;;-1.55;100.00;102931.47;5240330;28;20463;-75
2023/01/29 07:38:12;;;;;;;92.75;31.42;;;;;;;-1.51;100.00;102922.56;5261001;28;20028;-75
2023/01/29 07:40:42;;;;;;;94.22;31.65;;;;;;;-1.46;100.00;102929.44;5247643;28;20017;-75
2023/01/29 07:43:13;;;;;;;96.90;34.45;;;;;;;-1.40;100.00;102931.09;5247124;28;20027;-75
2023/01/29 07:45:43;;;;;;;88.07;31.38;;;;;;;-1.35;100.00;102930.06;5248035;28;20029;-76
2023/01/29 07:48:14;;;;;;;95.70;32.40;;;;;;;-1.29;100.00;102930.81;5253554;28;20100;-76
2023/01/29 07:50:44;;;;;;;92.70;31.70;;;;;;;-1.23;100.00;102928.00;5268815;28;20444;-76
2023/01/29 07:53:15;;;;;;;95.93;29.60;;;;;;;-1.17;100.00;102925.22;5260634;28;20507;-75
2023/01/29 07:55:45;;;;;;;88.47;30.92;;;;;;;-1.12;100.00;102912.78;5247596;28;20052;-75
2023/01/29 07:58:16;;;;;;;85.68;30.58;;;;;;;-1.09;100.00;102921.47;5247087;28;20107;-75
2023/01/29 08:00:46;;;;;;;98.93;32.78;;;;;;;-1.01;100.00;102928.31;5248939;28;20387;-75
2023/01/29 08:03:19;;;;;;;90.25;30.13;;;;;;;-0.99;100.00;102927.38;5256794;28;20454;-76
2023/01/29 08:05:49;;;;;;;81.00;30.45;;;;;;;-0.94;100.00;102919.34;5247961;28;20725;-76
2023/01/29 08:08:19;;;;;;;77.75;27.73;;;;;;;-0.97;100.00;102909.72;5259704;28;20024;-75
2023/01/29 08:10:50;;;;;;;80.00;28.73;;;;;;;-0.90;100.00;102931.53;5261603;28;20047;-76
2023/01/29 08:13:20;;;;;;;80.55;27.95;;;;;;;-0.87;100.00;102934.94;5246083;28;20380;-75
2023/01/29 08:15:51;;;;;;;93.97;32.03;;;;;;;-0.83;100.00;102941.00;5257925;28;20666;-76
2023/01/29 08:18:21;;;;;;;78.97;28.02;;;;;;;-0.81;100.00;102933.88;5253286;28;20444;-75
2023/01/29 08:20:52;;;;;;;82.43;30.42;;;;;;;-0.79;100.00;102932.97;5246895;28;20504;-75
2023/01/29 08:23:22;;;;;;;79.43;29.60;;;;;;;-0.76;100.00;102931.13;5246151;28;20691;-76
2023/01/29 08:25:53;;;;;;;81.50;29.70;;;;;;;-0.75;100.00;102930.22;5246811;28;20024;-75
2023/01/29 08:28:23;;;;;;;77.75;30.75;;;;;;;-0.74;100.00;102926.69;5246628;28;20032;-75
2023/01/29 08:30:54;;;;;;;74.85;28.55;;;;;;;-0.74;100.00;102921.44;5257001;28;20151;-76
2023/01/29 08:33:27;;;;;;;72.75;27.15;;;;;;;-0.75;100.00;102911.78;5252330;28;20020;-75
2023/01/29 08:35:57;;;;;;;74.53;29.35;;;;;;;-0.70;100.00;102905.50;5254675;28;20030;-75
2023/01/29 08:38:28;;;;;;;74.35;27.60;;;;;;;-0.68;100.00;102903.66;5253070;28;20747;-75
2023/01/29 08:40:58;;;;;;;77.18;28.05;;;;;;;-0.64;100.00;102901.81;5253431;28;20017;-75
2023/01/29 08:43:29;;;;;;;77.00;28.02;;;;;;;-0.65;100.00;102902.72;5246645;28;20028;-76
2023/01/29 08:45:59;;;;;;;77.13;27.50;;;;;;;-0.62;100.00;102905.25;5245758;28;20366;-75
2023/01/29 08:48:30;;;;;;;81.13;30.55;;;;;;;-0.59;100.00;102908.69;5253526;28;20052;-76
2023/01/29 08:51:01;;;;;;;81.00;28.45;;;;;;;-0.55;100.00;102906.81;5262170;28;20044;-75
2023/01/29 08:53:32;;;;;;;84.53;29.50;;;;;;;-0.50;100.00;102907.56;5245563;28;20031;-75
2023/01/29 08:56:02;;;;;;;76.45;28.08;;;;;;;-0.47;100.00;102902.16;5260020;28;20549;-75
2023/01/29 08:58:33;;;;;;;79.07;30.10;;;;;;;-0.43;100.00;102906.44;5246526;28;20361;-75
2023/01/29 09:01:12;;;;;;;76.47;28.40;;;;;;;-0.40;100.00;102895.81;5258837;28;20024;-76
2023/01/29 09:03:43;;;;;;;82.03;29.63;;;;;;;-0.36;100.00;102901.84;5247737;28;20085;-75
2023/01/29 09:06:14;;;;;;;81.80;29.65;;;;;;;-0.33;100.00;102913.19;5267589;28;20099;-75
2023/01/29 09:08:44;;;;;;;79.93;30.38;;;;;;;-0.31;100.00;102906.06;5253316;28;20032;-76
2023/01/29 09:11:15;;;;;;;79.30;28.73;;;;;;;-0.30;100.00;102915.75;5261168;28;20103;-76
2023/01/29 09:13:45;;;;;;;76.35;29.60;;;;;;;-0.28;100.00;102919.19;5251542;28;20479;-75
2023/01/29 09:16:16;;;;;;;72.43;26.48;;;;;;;-0.24;100.00;102921.75;5263325;28;20035;-75
2023/01/29 09:18:46;;;;;;;93.93;30.45;;;;;;;-0.22;100.00;102915.50;5253525;28;20023;-75
2023/01/29 09:21:16;;;;;;;74.47;29.20;;;;;;;-0.26;100.00;102914.72;5254030;28;20029;-75
2023/01/29 09:23:47;;;;;;;81.68;30.80;;;;;;;-0.23;100.00;102907.63;5245726;28;20020;-75
2023/01/29 09:26:17;;;;;;;81.47;30.13;;;;;;;-0.23;100.00;102907.63;5258680;28;20471;-75
2023/01/29 09:28:48;;;;;;;80.97;29.38;;;;;;;-0.23;100.00;102907.63;5245982;28;20024;-75
2023/01/29 09:31:18;;;;;;;79.30;29.33;;;;;;;-0.22;100.00;102904.94;5246685;28;20020;-76
2023/01/29 09:33:49;;;;;;;78.35;29.73;;;;;;;-0.23;100.00;102897.09;5266261;28;20655;-75
2023/01/29 09:36:19;;;;;;;74.40;27.67;;;;;;;-0.24;100.00;102901.50;5262202;28;20028;-75
2023/01/29 09:38:50;;;;;;;81.93;27.98;;;;;;;-0.21;100.00;102903.16;5245081;28;20029;-75
2023/01/29 09:42:17;;;;;;;70.85;25.73;;;;;;;-0.17;100.00;102897.75;5258331;28;20115;-75
2023/01/29 09:45:09;;;;;;;72.30;29.45;;;;;;;-0.14;100.00;102895.03;5218740;28;20185;-75
2023/01/29 09:47:40;;;;;;;66.75;25.63;;;;;;;-0.09;100.00;102902.81;5260425;28;20032;-75
2023/01/29 09:50:25;;;;;;;78.18;30.10;;;;;;;-0.07;100.00;102908.88;5265176;28;20028;-75
2023/01/29 09:53:09;;;;;;;80.40;29.67;;;;;;;-0.04;100.00;102907.03;5265694;28;20031;-76
2023/01/29 09:55:48;;;;;;;67.05;27.83;;;;;;;0.01;100.00;102913.94;5263951;28;20437;-75
2023/01/29 09:58:29;;;;;;;92.60;29.55;;;;;;;0.06;100.00;102914.66;5254302;28;20081;-75
2023/01/29 10:01:19;;;;;;;69.00;27.45;;;;;;;0.08;100.00;102911.06;5249058;28;20031;-75
2023/01/29 10:04:27;;;;;;;72.78;28.00;;;;;;;0.15;100.00;102899.41;5247635;28;20032;-75
2023/01/29 10:07:03;;;;;;;82.88;30.17;;;;;;;0.18;100.00;102895.78;5258464;28;20028;-75
2023/01/29 10:09:45;;;;;;;68.72;27.38;;;;;;;0.21;100.00;102893.91;5254541;28;20028;-76
2023/01/29 10:13:03;;;;;;;76.00;28.13;;;;;;;0.29;100.00;102893.66;5249011;28;20016;-75
2023/01/29 10:15:59;;;;;;;72.25;26.92;;;;;;;0.30;100.00;102899.78;5177605;28;20033;-76
2023/01/29 10:19:02;;;;;;;70.75;26.77;;;;;;;0.33;100.00;102891.78;5262628;28;20388;-76
2023/01/29 10:21:48;;;;;;;72.30;27.63;;;;;;;0.34;100.00;102885.59;5242864;28;20605;-76
2023/01/29 10:24:34;;;;;;;66.88;27.02;;;;;;;0.36;100.00;102879.34;5253429;28;20028;-76
2023/01/29 10:27:14;;;;;;;72.43;28.27;;;;;;;0.42;100.00;102878.28;5249537;28;20024;-76
2023/01/29 10:29:50;;;;;;;70.35;26.48;;;;;;;0.47;100.00;102881.63;5258913;28;20032;-76
2023/01/29 10:32:22;;;;;;;;;;;;;;;0.53;100.00;102876.13;5253337;28;20038;-76
2023/01/29 10:34:56;;;;;;;69.28;26.95;;;;;;;0.55;100.00;102881.34;5247775;28;19908;-76
2023/01/29 10:37:38;;;;;;;65.90;25.30;;;;;;;0.60;100.00;102885.56;5254569;28;20020;-76
2023/01/29 10:40:34;;;;;;;64.80;26.52;;;;;;;0.67;100.00;102878.31;5243352;28;20070;-76
2023/01/29 10:43:26;;;;;;;72.70;26.98;;;;;;;0.69;100.00;102879.97;5260860;28;20381;-76
2023/01/29 10:46:15;;;;;;;66.20;26.30;;;;;;;0.71;100.00;102878.16;5263587;28;20024;-76
2023/01/29 10:49:00;;;;;;;67.85;26.88;;;;;;;0.80;100.00;102878.75;5243090;28;20060;-76
2023/01/29 10:51:45;;;;;;;68.28;28.05;;;;;;;0.86;100.00;102874.13;5249267;28;20094;-76
2023/01/29 10:54:34;;;;;;;64.47;25.60;;;;;;;0.89;100.00;102873.13;5249640;28;20048;-75
2023/01/29 10:57:26;;;;;;;68.70;26.70;;;;;;;0.94;100.00;102868.53;5244392;28;20365;-75
2023/01/29 11:00:12;;;;;;;70.50;26.83;;;;;;;0.97;100.00;102855.22;5244015;28;20020;-75
2023/01/29 11:02:45;;;;;;;67.43;25.88;;;;;;;0.98;100.00;102857.81;5255600;28;20131;-76
2023/01/29 11:05:43;;;;;;;60.67;25.60;;;;;;;1.01;100.00;102855.06;5245130;28;20173;-75
2023/01/29 11:08:22;;;;;;;68.07;26.23;;;;;;;1.11;100.00;102850.31;5243867;28;20021;-75
2023/01/29 11:10:55;;;;;;;69.05;26.95;;;;;;;1.16;100.00;102842.22;5259829;28;20515;-75
2023/01/29 11:13:33;;;;;;;66.43;25.65;;;;;;;1.26;100.00;102840.94;5247381;28;20672;-75
2023/01/29 11:16:06;;;;;;;71.20;26.70;;;;;;;1.32;100.00;102832.78;5251007;28;20021;-75
2023/01/29 11:19:09;;;;;;;63.75;25.60;;;;;;;1.33;100.00;102818.63;5248568;28;20028;-75
2023/01/29 11:21:57;;;;;;;68.28;26.00;;;;;;;1.40;100.00;102822.75;5229250;28;20040;-75
2023/01/29 11:24:28;;;;;;;71.72;26.17;;;;;;;1.34;100.00;102804.47;5259642;28;20054;-75
2023/01/29 11:26:59;;;;;;;67.47;26.95;;;;;;;1.34;100.00;102803.63;5262197;28;20103;-75
2023/01/29 11:29:47;;;;;;;66.32;27.25;;;;;;;1.49;100.00;102798.59;5247340;28;20031;-75
2023/01/29 11:32:20;;;;;;;66.32;25.73;;;;;;;1.51;100.00;102790.63;5256853;28;20028;-75
2023/01/29 11:35:24;;;;;;;65.10;25.58;;;;;;;1.47;100.00;102789.00;5249821;28;20048;-75
2023/01/29 11:38:06;;;;;;;67.55;26.60;;;;;;;1.57;100.00;102774.50;5241619;28;20071;-75
2023/01/29 11:40:39;;;;;;;70.15;26.80;;;;;;;1.59;100.00;102770.00;5258455;28;20396;-75
2023/01/29 11:43:22;;;;;;;73.05;28.35;;;;;;;1.72;100.00;102762.44;5253134;28;20032;-75
2023/01/29 11:45:55;;;;;;;73.35;27.77;;;;;;;1.77;100.00;102749.88;5254073;28;20030;-76
2023/01/29 11:48:34;;;;;;;62.08;25.98;;;;;;;1.78;100.00;102749.81;5257886;28;20031;-75
2023/01/29 11:51:05;;;;;;;66.50;25.05;;;;;;;1.79;100.00;102743.59;5246988;28;20107;-75
2023/01/29 11:53:42;;;;;;;59.88;24.23;;;;;;;1.83;100.00;102739.03;5246878;28;20032;-75
2023/01/29 11:56:19;;;;;;;61.92;24.55;;;;;;;1.84;100.00;102740.75;5247162;28;20047;-75
2023/01/29 11:58:51;;;;;;;63.80;25.17;;;;;;;1.99;100.00;102747.19;5247889;28;20039;-75
2023/01/29 12:01:35;;;;;;;64.70;26.70;;;;;;;2.14;100.00;102738.59;5267576;28;20044;-75
2023/01/29 12:04:19;;;;;;;54.28;23.13;;;;;;;2.19;100.00;102738.41;5266592;28;20028;-75
2023/01/29 12:06:52;;;;;;;56.58;22.23;;;;;;;2.29;100.00;102739.72;5251939;28;20505;-75
2023/01/29 12:09:27;;;;;;;55.83;23.25;;;;;;;2.25;100.00;102725.75;5246559;28;20032;-75
2023/01/29 12:12:16;;;;;;;53.13;22.43;;;;;;;2.35;100.00;102728.84;5261767;28;20016;-75
2023/01/29 12:15:02;;;;;;;65.15;25.58;;;;;;;2.37;100.00;102718.22;5256555;28;20078;-75